sensor_id;sensor_type;location;lat;lon;timestamp;temperature;humidity
21580;DHT22;10951;59.656;9.666;2023-02-28T00:01:31;-1.10;76.80
21580;DHT22;10951;59.656;9.666;2023-02-28T00:03:58;-1.10;77.40
21580;DHT22;10951;59.656;9.666;2023-02-28T00:06:26;-1.10;77.30
21580;DHT22;10951;59.656;9.666;2023-02-28T00:08:53;-1.20;77.30
21580;DHT22;10951;59.656;9.666;2023-02-28T00:11:20;-1.30;77.50
21580;DHT22;10951;59.656;9.666;2023-02-28T00:13:47;-1.20;77.70
21580;DHT22;10951;59.656;9.666;2023-02-28T00:16:18;-1.20;77.70
21580;DHT22;10951;59.656;9.666;2023-02-28T00:18:45;-1.30;78.10
21580;DHT22;10951;59.656;9.666;2023-02-28T00:21:14;-1.40;78.60
21580;DHT22;10951;59.656;9.666;2023-02-28T00:23:41;-1.50;79.00
21580;DHT22;10951;59.656;9.666;2023-02-28T00:26:08;-1.50;79.10
21580;DHT22;10951;59.656;9.666;2023-02-28T00:28:36;-1.50;79.30
21580;DHT22;10951;59.656;9.666;2023-02-28T00:31:03;-1.50;79.40
21580;DHT22;10951;59.656;9.666;2023-02-28T00:33:31;-1.60;79.00
21580;DHT22;10951;59.656;9.666;2023-02-28T00:36:07;-1.50;78.40
21580;DHT22;10951;59.656;9.666;2023-02-28T00:38:35;-1.40;77.90
21580;DHT22;10951;59.656;9.666;2023-02-28T00:41:02;-1.30;77.70
21580;DHT22;10951;59.656;9.666;2023-02-28T00:43:35;-1.30;77.30
21580;DHT22;10951;59.656;9.666;2023-02-28T00:46:03;-1.20;76.90
21580;DHT22;10951;59.656;9.666;2023-02-28T00:48:30;-1.10;76.30
21580;DHT22;10951;59.656;9.666;2023-02-28T00:50:57;-1.10;76.00
21580;DHT22;10951;59.656;9.666;2023-02-28T00:53:24;-1.00;75.70
21580;DHT22;10951;59.656;9.666;2023-02-28T00:55:51;-1.00;75.00
21580;DHT22;10951;59.656;9.666;2023-02-28T00:58:18;-0.90;75.00
21580;DHT22;10951;59.656;9.666;2023-02-28T01:00:45;-0.80;74.60
21580;DHT22;10951;59.656;9.666;2023-02-28T01:03:20;-0.80;74.60
21580;DHT22;10951;59.656;9.666;2023-02-28T01:05:47;-0.80;74.30
21580;DHT22;10951;59.656;9.666;2023-02-28T01:08:16;-0.80;74.30
21580;DHT22;10951;59.656;9.666;2023-02-28T01:10:43;-0.80;74.50
21580;DHT22;10951;59.656;9.666;2023-02-28T01:13:11;-0.80;74.50
21580;DHT22;10951;59.656;9.666;2023-02-28T01:15:42;-0.90;74.70
21580;DHT22;10951;59.656;9.666;2023-02-28T01:18:11;-0.90;75.10
21580;DHT22;10951;59.656;9.666;2023-02-28T01:20:38;-1.00;75.70
21580;DHT22;10951;59.656;9.666;2023-02-28T01:23:05;-1.00;75.60
21580;DHT22;10951;59.656;9.666;2023-02-28T01:25:36;-1.10;75.40
21580;DHT22;10951;59.656;9.666;2023-02-28T01:28:04;-1.00;75.00
21580;DHT22;10951;59.656;9.666;2023-02-28T01:30:32;-0.90;75.90
21580;DHT22;10951;59.656;9.666;2023-02-28T01:32:59;-0.90;76.20
21580;DHT22;10951;59.656;9.666;2023-02-28T01:35:26;-1.00;76.40
21580;DHT22;10951;59.656;9.666;2023-02-28T01:37:53;-1.00;76.10
21580;DHT22;10951;59.656;9.666;2023-02-28T01:40:20;-1.00;75.90
21580;DHT22;10951;59.656;9.666;2023-02-28T01:42:48;-1.10;75.80
21580;DHT22;10951;59.656;9.666;2023-02-28T01:45:28;-1.10;76.20
21580;DHT22;10951;59.656;9.666;2023-02-28T01:48:00;-1.10;76.60
21580;DHT22;10951;59.656;9.666;2023-02-28T01:50:32;-1.10;76.60
21580;DHT22;10951;59.656;9.666;2023-02-28T01:53:04;-1.20;76.60
21580;DHT22;10951;59.656;9.666;2023-02-28T01:55:33;-1.20;76.60
21580;DHT22;10951;59.656;9.666;2023-02-28T01:58:02;-1.30;76.70
21580;DHT22;10951;59.656;9.666;2023-02-28T02:00:30;-1.30;76.70
21580;DHT22;10951;59.656;9.666;2023-02-28T02:02:59;-1.40;76.70
21580;DHT22;10951;59.656;9.666;2023-02-28T02:05:30;-1.50;77.20
21580;DHT22;10951;59.656;9.666;2023-02-28T02:08:09;-1.60;77.60
21580;DHT22;10951;59.656;9.666;2023-02-28T02:10:54;-1.70;78.00
21580;DHT22;10951;59.656;9.666;2023-02-28T02:16:25;-1.70;78.30
21580;DHT22;10951;59.656;9.666;2023-02-28T02:36:14;-1.70;78.90
21580;DHT22;10951;59.656;9.666;2023-02-28T02:38:58;-1.70;79.00
21580;DHT22;10951;59.656;9.666;2023-02-28T02:41:42;-1.60;78.40
21580;DHT22;10951;59.656;9.666;2023-02-28T02:44:34;-1.60;78.00
21580;DHT22;10951;59.656;9.666;2023-02-28T02:47:16;-1.50;77.70
21580;DHT22;10951;59.656;9.666;2023-02-28T02:49:51;-1.50;77.80
21580;DHT22;10951;59.656;9.666;2023-02-28T02:52:25;-1.50;77.90
21580;DHT22;10951;59.656;9.666;2023-02-28T02:54:55;-1.50;77.90
21580;DHT22;10951;59.656;9.666;2023-02-28T02:57:27;-1.60;77.80
21580;DHT22;10951;59.656;9.666;2023-02-28T02:59:57;-1.60;78.00
21580;DHT22;10951;59.656;9.666;2023-02-28T03:02:26;-1.60;78.20
21580;DHT22;10951;59.656;9.666;2023-02-28T03:04:53;-1.60;78.80
21580;DHT22;10951;59.656;9.666;2023-02-28T03:07:23;-1.50;79.60
21580;DHT22;10951;59.656;9.666;2023-02-28T03:09:54;-1.60;79.80
21580;DHT22;10951;59.656;9.666;2023-02-28T03:12:25;-1.60;80.20
21580;DHT22;10951;59.656;9.666;2023-02-28T03:15:21;-1.60;80.20
21580;DHT22;10951;59.656;9.666;2023-02-28T03:18:10;-1.60;80.60
21580;DHT22;10951;59.656;9.666;2023-02-28T03:21:24;-1.60;79.60
21580;DHT22;10951;59.656;9.666;2023-02-28T03:26:43;-1.70;79.90
21580;DHT22;10951;59.656;9.666;2023-02-28T03:29:34;-1.80;80.40
21580;DHT22;10951;59.656;9.666;2023-02-28T03:32:11;-1.80;80.70
21580;DHT22;10951;59.656;9.666;2023-02-28T03:34:50;-1.80;80.60
21580;DHT22;10951;59.656;9.666;2023-02-28T03:37:23;-1.80;81.00
21580;DHT22;10951;59.656;9.666;2023-02-28T03:40:02;-1.80;80.90
21580;DHT22;10951;59.656;9.666;2023-02-28T03:42:36;-1.80;81.10
21580;DHT22;10951;59.656;9.666;2023-02-28T03:45:08;-1.90;81.40
21580;DHT22;10951;59.656;9.666;2023-02-28T03:50:24;-1.90;81.40
21580;DHT22;10951;59.656;9.666;2023-02-28T03:53:00;-1.90;81.10
21580;DHT22;10951;59.656;9.666;2023-02-28T03:55:37;-1.80;80.80
21580;DHT22;10951;59.656;9.666;2023-02-28T04:00:50;-1.70;79.90
21580;DHT22;10951;59.656;9.666;2023-02-28T04:03:19;-1.70;79.50
21580;DHT22;10951;59.656;9.666;2023-02-28T04:05:54;-1.60;79.40
21580;DHT22;10951;59.656;9.666;2023-02-28T04:08:22;-1.70;79.70
21580;DHT22;10951;59.656;9.666;2023-02-28T04:11:13;-1.60;80.20
21580;DHT22;10951;59.656;9.666;2023-02-28T04:13:43;-1.60;79.10
21580;DHT22;10951;59.656;9.666;2023-02-28T04:16:13;-1.40;78.60
21580;DHT22;10951;59.656;9.666;2023-02-28T04:18:58;-1.40;78.50
21580;DHT22;10951;59.656;9.666;2023-02-28T04:21:34;-1.50;79.30
21580;DHT22;10951;59.656;9.666;2023-02-28T04:24:02;-1.50;79.00
21580;DHT22;10951;59.656;9.666;2023-02-28T04:26:34;-1.50;78.90
21580;DHT22;10951;59.656;9.666;2023-02-28T04:29:03;-1.60;78.80
21580;DHT22;10951;59.656;9.666;2023-02-28T04:31:31;-1.60;78.90
21580;DHT22;10951;59.656;9.666;2023-02-28T04:33:59;-1.60;79.60
21580;DHT22;10951;59.656;9.666;2023-02-28T04:36:26;-1.50;79.40
21580;DHT22;10951;59.656;9.666;2023-02-28T04:38:53;-1.40;78.80
21580;DHT22;10951;59.656;9.666;2023-02-28T04:41:21;-1.40;78.60
21580;DHT22;10951;59.656;9.666;2023-02-28T04:43:51;-1.30;78.10
21580;DHT22;10951;59.656;9.666;2023-02-28T04:46:19;-1.40;78.10
21580;DHT22;10951;59.656;9.666;2023-02-28T04:48:46;-1.50;78.20
21580;DHT22;10951;59.656;9.666;2023-02-28T04:51:15;-1.50;78.60
21580;DHT22;10951;59.656;9.666;2023-02-28T04:53:42;-1.50;78.40
21580;DHT22;10951;59.656;9.666;2023-02-28T04:56:13;-1.50;78.40
21580;DHT22;10951;59.656;9.666;2023-02-28T04:58:40;-1.60;79.20
21580;DHT22;10951;59.656;9.666;2023-02-28T05:01:24;-1.60;79.60
21580;DHT22;10951;59.656;9.666;2023-02-28T05:03:53;-1.60;79.30
21580;DHT22;10951;59.656;9.666;2023-02-28T05:06:21;-1.60;79.20
21580;DHT22;10951;59.656;9.666;2023-02-28T05:08:50;-1.60;79.70
21580;DHT22;10951;59.656;9.666;2023-02-28T05:11:33;-1.70;79.70
21580;DHT22;10951;59.656;9.666;2023-02-28T05:14:04;-1.60;79.70
21580;DHT22;10951;59.656;9.666;2023-02-28T05:16:32;-1.60;79.20
21580;DHT22;10951;59.656;9.666;2023-02-28T05:18:59;-1.70;79.00
21580;DHT22;10951;59.656;9.666;2023-02-28T05:21:35;-1.70;79.00
21580;DHT22;10951;59.656;9.666;2023-02-28T05:24:08;-1.70;79.00
21580;DHT22;10951;59.656;9.666;2023-02-28T05:26:38;-1.70;79.00
21580;DHT22;10951;59.656;9.666;2023-02-28T05:29:06;-1.80;79.20
21580;DHT22;10951;59.656;9.666;2023-02-28T05:31:33;-1.80;79.50
21580;DHT22;10951;59.656;9.666;2023-02-28T05:34:01;-1.80;80.30
21580;DHT22;10951;59.656;9.666;2023-02-28T05:36:28;-1.80;80.70
21580;DHT22;10951;59.656;9.666;2023-02-28T05:38:54;-1.70;80.40
21580;DHT22;10951;59.656;9.666;2023-02-28T05:41:22;-1.60;79.50
21580;DHT22;10951;59.656;9.666;2023-02-28T05:43:49;-1.50;78.70
21580;DHT22;10951;59.656;9.666;2023-02-28T05:46:16;-1.40;78.10
21580;DHT22;10951;59.656;9.666;2023-02-28T05:48:46;-1.50;78.10
21580;DHT22;10951;59.656;9.666;2023-02-28T05:51:14;-1.50;78.20
21580;DHT22;10951;59.656;9.666;2023-02-28T05:53:42;-1.70;78.20
21580;DHT22;10951;59.656;9.666;2023-02-28T05:56:08;-1.80;78.60
21580;DHT22;10951;59.656;9.666;2023-02-28T05:58:35;-1.90;79.00
21580;DHT22;10951;59.656;9.666;2023-02-28T06:03:47;-2.10;80.70
21580;DHT22;10951;59.656;9.666;2023-02-28T06:06:14;-2.10;80.50
21580;DHT22;10951;59.656;9.666;2023-02-28T06:08:40;-2.10;80.30
21580;DHT22;10951;59.656;9.666;2023-02-28T06:11:10;-2.10;80.40
21580;DHT22;10951;59.656;9.666;2023-02-28T06:13:36;-2.20;80.40
21580;DHT22;10951;59.656;9.666;2023-02-28T06:16:03;-2.20;81.00
21580;DHT22;10951;59.656;9.666;2023-02-28T06:18:30;-2.20;81.40
21580;DHT22;10951;59.656;9.666;2023-02-28T06:20:57;-2.30;81.60
21580;DHT22;10951;59.656;9.666;2023-02-28T06:23:24;-2.20;81.80
21580;DHT22;10951;59.656;9.666;2023-02-28T06:25:51;-2.30;81.70
21580;DHT22;10951;59.656;9.666;2023-02-28T06:28:19;-2.30;81.90
21580;DHT22;10951;59.656;9.666;2023-02-28T06:30:46;-2.30;82.10
21580;DHT22;10951;59.656;9.666;2023-02-28T06:33:13;-2.30;82.20
21580;DHT22;10951;59.656;9.666;2023-02-28T06:35:42;-2.30;82.40
21580;DHT22;10951;59.656;9.666;2023-02-28T06:38:09;-2.40;82.50
21580;DHT22;10951;59.656;9.666;2023-02-28T06:40:37;-2.40;82.80
21580;DHT22;10951;59.656;9.666;2023-02-28T06:43:04;-2.40;82.80
21580;DHT22;10951;59.656;9.666;2023-02-28T06:45:31;-2.50;83.10
21580;DHT22;10951;59.656;9.666;2023-02-28T06:47:57;-2.50;83.10
21580;DHT22;10951;59.656;9.666;2023-02-28T06:50:25;-2.50;83.90
21580;DHT22;10951;59.656;9.666;2023-02-28T06:52:51;-2.50;83.60
21580;DHT22;10951;59.656;9.666;2023-02-28T06:55:20;-2.40;83.30
21580;DHT22;10951;59.656;9.666;2023-02-28T06:57:47;-2.30;82.60
21580;DHT22;10951;59.656;9.666;2023-02-28T07:00:14;-2.10;82.00
21580;DHT22;10951;59.656;9.666;2023-02-28T07:02:41;-2.10;81.30
21580;DHT22;10951;59.656;9.666;2023-02-28T07:05:08;-2.20;81.60
21580;DHT22;10951;59.656;9.666;2023-02-28T07:07:35;-2.20;81.90
21580;DHT22;10951;59.656;9.666;2023-02-28T07:10:05;-2.20;82.30
21580;DHT22;10951;59.656;9.666;2023-02-28T07:12:32;-2.10;82.10
21580;DHT22;10951;59.656;9.666;2023-02-28T07:14:59;-2.00;81.60
21580;DHT22;10951;59.656;9.666;2023-02-28T07:17:26;-1.90;80.90
21580;DHT22;10951;59.656;9.666;2023-02-28T07:19:53;-1.90;80.30
21580;DHT22;10951;59.656;9.666;2023-02-28T07:22:20;-1.80;80.20
21580;DHT22;10951;59.656;9.666;2023-02-28T07:24:46;-1.60;79.80
21580;DHT22;10951;59.656;9.666;2023-02-28T07:27:13;-1.50;79.20
21580;DHT22;10951;59.656;9.666;2023-02-28T07:29:50;-1.50;79.00
21580;DHT22;10951;59.656;9.666;2023-02-28T07:32:17;-1.40;78.60
21580;DHT22;10951;59.656;9.666;2023-02-28T07:34:46;-1.30;78.80
21580;DHT22;10951;59.656;9.666;2023-02-28T07:37:13;-1.40;78.00
21580;DHT22;10951;59.656;9.666;2023-02-28T07:39:40;-1.30;78.00
21580;DHT22;10951;59.656;9.666;2023-02-28T07:42:10;-1.20;78.10
21580;DHT22;10951;59.656;9.666;2023-02-28T07:44:39;-1.10;77.60
21580;DHT22;10951;59.656;9.666;2023-02-28T07:47:08;-1.00;77.60
21580;DHT22;10951;59.656;9.666;2023-02-28T07:49:36;-1.00;77.40
21580;DHT22;10951;59.656;9.666;2023-02-28T07:52:05;-1.00;77.10
21580;DHT22;10951;59.656;9.666;2023-02-28T07:54:32;-1.00;77.00
21580;DHT22;10951;59.656;9.666;2023-02-28T07:56:59;-0.90;76.90
21580;DHT22;10951;59.656;9.666;2023-02-28T07:59:26;-0.80;76.30
21580;DHT22;10951;59.656;9.666;2023-02-28T08:01:54;-0.60;75.80
21580;DHT22;10951;59.656;9.666;2023-02-28T08:04:20;-0.50;75.60
21580;DHT22;10951;59.656;9.666;2023-02-28T08:06:47;-0.40;75.30
21580;DHT22;10951;59.656;9.666;2023-02-28T08:09:14;-0.40;74.50
21580;DHT22;10951;59.656;9.666;2023-02-28T08:11:41;-0.30;73.70
21580;DHT22;10951;59.656;9.666;2023-02-28T08:14:08;-0.20;73.00
21580;DHT22;10951;59.656;9.666;2023-02-28T08:16:35;-0.20;73.20
21580;DHT22;10951;59.656;9.666;2023-02-28T08:19:02;-0.10;73.20
21580;DHT22;10951;59.656;9.666;2023-02-28T08:21:28;0.00;73.00
21580;DHT22;10951;59.656;9.666;2023-02-28T08:23:56;0.10;72.40
21580;DHT22;10951;59.656;9.666;2023-02-28T08:26:23;0.20;72.00
21580;DHT22;10951;59.656;9.666;2023-02-28T08:28:50;0.30;71.50
21580;DHT22;10951;59.656;9.666;2023-02-28T08:31:17;0.40;70.90
21580;DHT22;10951;59.656;9.666;2023-02-28T08:33:44;0.50;70.60
21580;DHT22;10951;59.656;9.666;2023-02-28T08:36:11;0.50;71.30
21580;DHT22;10951;59.656;9.666;2023-02-28T08:38:39;0.50;70.70
21580;DHT22;10951;59.656;9.666;2023-02-28T08:41:08;0.50;70.90
21580;DHT22;10951;59.656;9.666;2023-02-28T08:43:36;0.50;70.40
21580;DHT22;10951;59.656;9.666;2023-02-28T08:46:04;0.50;69.90
21580;DHT22;10951;59.656;9.666;2023-02-28T08:48:33;0.40;69.80
21580;DHT22;10951;59.656;9.666;2023-02-28T08:51:05;0.50;70.10
21580;DHT22;10951;59.656;9.666;2023-02-28T08:53:35;0.50;69.90
21580;DHT22;10951;59.656;9.666;2023-02-28T08:56:05;0.50;69.30
21580;DHT22;10951;59.656;9.666;2023-02-28T08:58:32;0.40;69.80
21580;DHT22;10951;59.656;9.666;2023-02-28T09:01:15;0.40;69.70
21580;DHT22;10951;59.656;9.666;2023-02-28T09:03:43;0.40;69.40
21580;DHT22;10951;59.656;9.666;2023-02-28T09:06:11;0.60;68.50
21580;DHT22;10951;59.656;9.666;2023-02-28T09:08:39;0.70;68.40
21580;DHT22;10951;59.656;9.666;2023-02-28T09:11:06;0.80;67.80
21580;DHT22;10951;59.656;9.666;2023-02-28T09:13:34;0.90;67.10
21580;DHT22;10951;59.656;9.666;2023-02-28T09:16:02;1.00;66.60
21580;DHT22;10951;59.656;9.666;2023-02-28T09:18:30;1.10;66.00
21580;DHT22;10951;59.656;9.666;2023-02-28T09:20:57;1.20;65.90
21580;DHT22;10951;59.656;9.666;2023-02-28T09:23:24;1.30;65.40
21580;DHT22;10951;59.656;9.666;2023-02-28T09:25:53;1.50;65.50
21580;DHT22;10951;59.656;9.666;2023-02-28T09:28:22;1.60;64.30
21580;DHT22;10951;59.656;9.666;2023-02-28T09:30:51;1.80;64.00
21580;DHT22;10951;59.656;9.666;2023-02-28T09:33:21;1.90;63.70
21580;DHT22;10951;59.656;9.666;2023-02-28T09:35:49;2.00;63.80
21580;DHT22;10951;59.656;9.666;2023-02-28T09:38:17;2.10;62.60
21580;DHT22;10951;59.656;9.666;2023-02-28T09:40:52;2.20;63.50
21580;DHT22;10951;59.656;9.666;2023-02-28T09:43:24;2.30;63.30
21580;DHT22;10951;59.656;9.666;2023-02-28T09:46:40;2.40;62.20
21580;DHT22;10951;59.656;9.666;2023-02-28T09:48:45;2.50;61.90
21580;DHT22;10951;59.656;9.666;2023-02-28T09:53:45;2.50;62.50
21580;DHT22;10951;59.656;9.666;2023-02-28T09:56:24;2.60;62.70
21580;DHT22;10951;59.656;9.666;2023-02-28T09:58:57;2.60;62.40
21580;DHT22;10951;59.656;9.666;2023-02-28T10:01:57;2.70;62.00
21580;DHT22;10951;59.656;9.666;2023-02-28T10:04:35;2.70;60.80
21580;DHT22;10951;59.656;9.666;2023-02-28T10:07:16;2.90;61.00
21580;DHT22;10951;59.656;9.666;2023-02-28T10:09:50;3.10;60.00
21580;DHT22;10951;59.656;9.666;2023-02-28T10:12:18;3.20;59.40
21580;DHT22;10951;59.656;9.666;2023-02-28T10:14:49;3.40;58.60
21580;DHT22;10951;59.656;9.666;2023-02-28T10:17:21;3.60;58.30
21580;DHT22;10951;59.656;9.666;2023-02-28T10:19:56;3.70;57.30
21580;DHT22;10951;59.656;9.666;2023-02-28T10:25:21;4.00;57.10
21580;DHT22;10951;59.656;9.666;2023-02-28T10:27:50;4.20;57.60
21580;DHT22;10951;59.656;9.666;2023-02-28T10:30:20;4.40;57.60
21580;DHT22;10951;59.656;9.666;2023-02-28T10:32:50;4.50;56.40
21580;DHT22;10951;59.656;9.666;2023-02-28T10:35:24;4.50;56.20
21580;DHT22;10951;59.656;9.666;2023-02-28T10:37:57;4.50;56.20
21580;DHT22;10951;59.656;9.666;2023-02-28T10:40:37;4.50;56.10
21580;DHT22;10951;59.656;9.666;2023-02-28T10:43:13;4.70;56.00
21580;DHT22;10951;59.656;9.666;2023-02-28T10:45:53;4.80;55.60
21580;DHT22;10951;59.656;9.666;2023-02-28T11:03:59;5.30;56.70
21580;DHT22;10951;59.656;9.666;2023-02-28T11:06:32;5.50;56.10
21580;DHT22;10951;59.656;9.666;2023-02-28T11:09:13;5.50;55.90
21580;DHT22;10951;59.656;9.666;2023-02-28T11:11:45;5.60;55.70
21580;DHT22;10951;59.656;9.666;2023-02-28T11:14:23;5.60;55.10
21580;DHT22;10951;59.656;9.666;2023-02-28T11:16:51;5.70;54.60
21580;DHT22;10951;59.656;9.666;2023-02-28T11:19:40;5.70;55.30
21580;DHT22;10951;59.656;9.666;2023-02-28T11:22:07;5.70;56.50
21580;DHT22;10951;59.656;9.666;2023-02-28T11:24:37;5.80;56.00
21580;DHT22;10951;59.656;9.666;2023-02-28T11:29:51;6.10;53.80
21580;DHT22;10951;59.656;9.666;2023-02-28T11:32:29;6.30;53.20
21580;DHT22;10951;59.656;9.666;2023-02-28T11:37:36;6.50;54.10
21580;DHT22;10951;59.656;9.666;2023-02-28T11:40:17;6.60;54.50
21580;DHT22;10951;59.656;9.666;2023-02-28T11:43:03;6.80;53.30
21580;DHT22;10951;59.656;9.666;2023-02-28T11:45:41;6.80;53.60
21580;DHT22;10951;59.656;9.666;2023-02-28T11:56:41;7.10;51.90
21580;DHT22;10951;59.656;9.666;2023-02-28T12:05:24;7.30;52.60
21580;DHT22;10951;59.656;9.666;2023-02-28T12:10:55;7.50;53.60
21580;DHT22;10951;59.656;9.666;2023-02-28T12:19:35;7.70;55.10
21580;DHT22;10951;59.656;9.666;2023-02-28T12:27:37;7.70;52.40
21580;DHT22;10951;59.656;9.666;2023-02-28T12:30:27;7.80;53.50
21580;DHT22;10951;59.656;9.666;2023-02-28T12:33:05;7.90;54.50
21580;DHT22;10951;59.656;9.666;2023-02-28T12:35:56;7.90;54.10
21580;DHT22;10951;59.656;9.666;2023-02-28T12:38:48;8.10;52.90
21580;DHT22;10951;59.656;9.666;2023-02-28T12:41:22;8.20;51.90
21580;DHT22;10951;59.656;9.666;2023-02-28T12:44:06;8.20;52.70
21580;DHT22;10951;59.656;9.666;2023-02-28T12:46:38;8.30;53.90
21580;DHT22;10951;59.656;9.666;2023-02-28T12:49:17;8.30;51.90
21580;DHT22;10951;59.656;9.666;2023-02-28T12:51:45;8.30;50.40
21580;DHT22;10951;59.656;9.666;2023-02-28T12:59:56;8.40;52.70
21580;DHT22;10951;59.656;9.666;2023-02-28T13:02:56;8.50;53.00
21580;DHT22;10951;59.656;9.666;2023-02-28T13:08:59;8.60;53.30
21580;DHT22;10951;59.656;9.666;2023-02-28T13:11:54;8.70;53.50
21580;DHT22;10951;59.656;9.666;2023-02-28T13:14:29;8.70;50.80
21580;DHT22;10951;59.656;9.666;2023-02-28T13:17:11;8.80;49.80
21580;DHT22;10951;59.656;9.666;2023-02-28T13:19:46;8.90;49.70
21580;DHT22;10951;59.656;9.666;2023-02-28T13:22:35;9.00;48.80
21580;DHT22;10951;59.656;9.666;2023-02-28T13:27:50;9.20;48.10
21580;DHT22;10951;59.656;9.666;2023-02-28T13:36:24;9.20;48.20
21580;DHT22;10951;59.656;9.666;2023-02-28T13:38:55;9.20;48.70
21580;DHT22;10951;59.656;9.666;2023-02-28T13:46:29;9.40;47.30
21580;DHT22;10951;59.656;9.666;2023-02-28T13:54:53;9.60;48.00
21580;DHT22;10951;59.656;9.666;2023-02-28T13:57:57;9.50;46.40
21580;DHT22;10951;59.656;9.666;2023-02-28T14:08:57;9.30;48.20
21580;DHT22;10951;59.656;9.666;2023-02-28T14:11:37;9.20;47.90
21580;DHT22;10951;59.656;9.666;2023-02-28T14:14:06;9.10;47.80
21580;DHT22;10951;59.656;9.666;2023-02-28T14:19:22;8.90;48.20
21580;DHT22;10951;59.656;9.666;2023-02-28T14:25:23;8.60;51.70
21580;DHT22;10951;59.656;9.666;2023-02-28T14:28:14;8.40;52.30
21580;DHT22;10951;59.656;9.666;2023-02-28T14:31:06;8.30;52.90
21580;DHT22;10951;59.656;9.666;2023-02-28T14:33:54;8.20;52.80
21580;DHT22;10951;59.656;9.666;2023-02-28T14:36:36;8.00;52.20
21580;DHT22;10951;59.656;9.666;2023-02-28T14:41:35;8.20;50.60
21580;DHT22;10951;59.656;9.666;2023-02-28T14:44:25;8.20;51.20
21580;DHT22;10951;59.656;9.666;2023-02-28T14:46:57;8.30;51.00
21580;DHT22;10951;59.656;9.666;2023-02-28T14:49:35;8.30;50.70
21580;DHT22;10951;59.656;9.666;2023-02-28T14:52:14;8.20;51.90
21580;DHT22;10951;59.656;9.666;2023-02-28T14:54:43;8.20;52.20
21580;DHT22;10951;59.656;9.666;2023-02-28T14:57:21;8.10;52.30
21580;DHT22;10951;59.656;9.666;2023-02-28T14:59:57;8.10;52.70
21580;DHT22;10951;59.656;9.666;2023-02-28T15:02:25;8.00;54.00
21580;DHT22;10951;59.656;9.666;2023-02-28T15:04:58;7.90;54.60
21580;DHT22;10951;59.656;9.666;2023-02-28T15:07:26;7.90;54.10
21580;DHT22;10951;59.656;9.666;2023-02-28T15:12:53;7.80;53.00
21580;DHT22;10951;59.656;9.666;2023-02-28T15:15:27;7.80;52.20
21580;DHT22;10951;59.656;9.666;2023-02-28T15:18:10;7.90;52.00
21580;DHT22;10951;59.656;9.666;2023-02-28T15:20:42;7.90;52.30
21580;DHT22;10951;59.656;9.666;2023-02-28T15:23:11;7.90;52.00
21580;DHT22;10951;59.656;9.666;2023-02-28T15:25:39;7.70;51.50
21580;DHT22;10951;59.656;9.666;2023-02-28T15:28:14;7.60;51.60
21580;DHT22;10951;59.656;9.666;2023-02-28T15:30:52;7.50;51.40
21580;DHT22;10951;59.656;9.666;2023-02-28T15:33:22;7.40;51.70
21580;DHT22;10951;59.656;9.666;2023-02-28T15:35:50;7.30;51.80
21580;DHT22;10951;59.656;9.666;2023-02-28T15:38:22;7.20;52.30
21580;DHT22;10951;59.656;9.666;2023-02-28T15:40:56;7.10;52.30
21580;DHT22;10951;59.656;9.666;2023-02-28T15:43:35;7.10;52.70
21580;DHT22;10951;59.656;9.666;2023-02-28T15:46:11;7.10;52.90
21580;DHT22;10951;59.656;9.666;2023-02-28T15:51:18;7.00;53.60
21580;DHT22;10951;59.656;9.666;2023-02-28T15:53:54;6.90;53.90
21580;DHT22;10951;59.656;9.666;2023-02-28T15:56:26;6.80;54.80
21580;DHT22;10951;59.656;9.666;2023-02-28T15:58:55;6.80;54.70
21580;DHT22;10951;59.656;9.666;2023-02-28T16:03:55;6.60;54.30
21580;DHT22;10951;59.656;9.666;2023-02-28T16:08:59;6.40;54.90
21580;DHT22;10951;59.656;9.666;2023-02-28T16:11:26;6.30;55.40
21580;DHT22;10951;59.656;9.666;2023-02-28T16:13:53;6.10;55.70
21580;DHT22;10951;59.656;9.666;2023-02-28T16:16:23;6.00;56.60
21580;DHT22;10951;59.656;9.666;2023-02-28T16:18:51;5.90;57.40
21580;DHT22;10951;59.656;9.666;2023-02-28T16:21:18;5.70;58.10
21580;DHT22;10951;59.656;9.666;2023-02-28T16:23:45;5.60;58.10
21580;DHT22;10951;59.656;9.666;2023-02-28T16:26:19;5.60;57.60
21580;DHT22;10951;59.656;9.666;2023-02-28T16:28:47;5.50;58.40
21580;DHT22;10951;59.656;9.666;2023-02-28T16:31:14;5.40;58.80
21580;DHT22;10951;59.656;9.666;2023-02-28T16:33:44;5.30;58.10
21580;DHT22;10951;59.656;9.666;2023-02-28T16:36:20;5.30;58.10
21580;DHT22;10951;59.656;9.666;2023-02-28T16:38:48;5.10;58.10
21580;DHT22;10951;59.656;9.666;2023-02-28T16:41:19;5.00;58.80
21580;DHT22;10951;59.656;9.666;2023-02-28T16:43:48;4.90;59.30
21580;DHT22;10951;59.656;9.666;2023-02-28T16:46:17;4.80;59.50
21580;DHT22;10951;59.656;9.666;2023-02-28T16:48:45;4.70;59.40
21580;DHT22;10951;59.656;9.666;2023-02-28T16:51:13;4.60;59.20
21580;DHT22;10951;59.656;9.666;2023-02-28T16:53:41;4.60;58.90
21580;DHT22;10951;59.656;9.666;2023-02-28T16:56:19;4.50;59.20
21580;DHT22;10951;59.656;9.666;2023-02-28T16:58:46;4.30;59.50
21580;DHT22;10951;59.656;9.666;2023-02-28T17:01:14;4.20;60.10
21580;DHT22;10951;59.656;9.666;2023-02-28T17:03:41;4.00;60.60
21580;DHT22;10951;59.656;9.666;2023-02-28T17:06:17;3.90;60.80
21580;DHT22;10951;59.656;9.666;2023-02-28T17:08:45;3.80;61.10
21580;DHT22;10951;59.656;9.666;2023-02-28T17:11:12;3.70;60.30
21580;DHT22;10951;59.656;9.666;2023-02-28T17:13:39;3.70;61.10
21580;DHT22;10951;59.656;9.666;2023-02-28T17:16:30;3.60;61.60
21580;DHT22;10951;59.656;9.666;2023-02-28T17:19:01;3.50;61.70
21580;DHT22;10951;59.656;9.666;2023-02-28T17:21:28;3.40;62.20
21580;DHT22;10951;59.656;9.666;2023-02-28T17:23:55;3.30;62.20
21580;DHT22;10951;59.656;9.666;2023-02-28T17:26:23;3.20;63.00
21580;DHT22;10951;59.656;9.666;2023-02-28T17:28:52;3.20;62.80
21580;DHT22;10951;59.656;9.666;2023-02-28T17:31:19;3.10;63.40
21580;DHT22;10951;59.656;9.666;2023-02-28T17:33:46;3.10;63.90
21580;DHT22;10951;59.656;9.666;2023-02-28T17:36:24;3.10;64.60
21580;DHT22;10951;59.656;9.666;2023-02-28T17:38:53;3.10;64.80
21580;DHT22;10951;59.656;9.666;2023-02-28T17:41:22;2.90;65.00
21580;DHT22;10951;59.656;9.666;2023-02-28T17:43:49;2.80;65.30
21580;DHT22;10951;59.656;9.666;2023-02-28T17:46:18;2.80;65.40
21580;DHT22;10951;59.656;9.666;2023-02-28T17:48:48;2.80;65.60
21580;DHT22;10951;59.656;9.666;2023-02-28T17:51:16;2.70;65.90
21580;DHT22;10951;59.656;9.666;2023-02-28T17:53:43;2.50;66.00
21580;DHT22;10951;59.656;9.666;2023-02-28T17:56:16;2.50;66.30
21580;DHT22;10951;59.656;9.666;2023-02-28T17:58:44;2.40;66.60
21580;DHT22;10951;59.656;9.666;2023-02-28T18:01:11;2.30;67.20
21580;DHT22;10951;59.656;9.666;2023-02-28T18:03:39;2.20;67.30
21580;DHT22;10951;59.656;9.666;2023-02-28T18:06:06;2.10;67.70
21580;DHT22;10951;59.656;9.666;2023-02-28T18:08:34;2.10;68.00
21580;DHT22;10951;59.656;9.666;2023-02-28T18:11:02;2.00;68.30
21580;DHT22;10951;59.656;9.666;2023-02-28T18:13:28;2.00;68.60
21580;DHT22;10951;59.656;9.666;2023-02-28T18:15:55;2.00;68.50
21580;DHT22;10951;59.656;9.666;2023-02-28T18:18:22;1.90;68.00
21580;DHT22;10951;59.656;9.666;2023-02-28T18:20:49;1.90;67.90
21580;DHT22;10951;59.656;9.666;2023-02-28T18:23:18;1.80;67.80
21580;DHT22;10951;59.656;9.666;2023-02-28T18:25:47;1.70;68.20
21580;DHT22;10951;59.656;9.666;2023-02-28T18:28:14;1.70;68.30